createdAt,value
2023-05-04T00:00:27.163Z,0.00
2023-05-04T00:01:27.143Z,0.00
2023-05-04T00:02:27.189Z,0.00
2023-05-04T00:03:27.233Z,0.00
2023-05-04T00:04:27.207Z,0.00
2023-05-04T00:05:27.114Z,0.00
2023-05-04T00:06:27.113Z,0.00
2023-05-04T00:07:27.074Z,0.00
2023-05-04T00:08:27.070Z,0.00
2023-05-04T00:09:27.048Z,0.00
2023-05-04T00:10:27.059Z,0.00
2023-05-04T00:11:27.039Z,0.00
2023-05-04T00:12:27.067Z,0.00
2023-05-04T00:13:27.015Z,0.00
2023-05-04T00:14:26.989Z,0.00
2023-05-04T00:15:26.989Z,0.00
2023-05-04T00:16:28.031Z,0.00
2023-05-04T00:17:27.184Z,0.00
2023-05-04T00:18:26.953Z,0.00
2023-05-04T00:19:26.943Z,0.00
2023-05-04T00:20:26.956Z,0.00
2023-05-04T00:21:26.918Z,0.00
2023-05-04T00:22:26.916Z,0.00
2023-05-04T00:23:26.929Z,0.00
2023-05-04T00:24:26.884Z,0.00
2023-05-04T00:25:26.871Z,0.00
2023-05-04T00:26:26.851Z,0.00
2023-05-04T00:27:26.866Z,0.00
2023-05-04T00:28:28.386Z,0.00
2023-05-04T00:29:26.896Z,0.00
2023-05-04T00:30:26.826Z,0.00
2023-05-04T00:31:26.904Z,0.00
2023-05-04T00:32:26.831Z,0.00
2023-05-04T00:33:26.775Z,0.00
2023-05-04T00:34:26.777Z,0.00
2023-05-04T00:35:26.813Z,0.00
2023-05-04T00:36:26.753Z,0.00
2023-05-04T00:37:26.738Z,0.00
2023-05-04T00:38:26.747Z,0.00
2023-05-04T00:39:26.724Z,0.00
2023-05-04T00:40:26.708Z,0.00
2023-05-04T00:41:26.740Z,0.00
2023-05-04T00:42:26.677Z,0.00
2023-05-04T00:43:26.676Z,0.00
2023-05-04T00:44:26.670Z,0.00
2023-05-04T00:45:26.658Z,0.00
2023-05-04T00:46:26.724Z,0.00
2023-05-04T00:47:26.711Z,0.00
2023-05-04T00:48:26.639Z,0.00
2023-05-04T00:49:26.602Z,0.00
2023-05-04T00:50:26.590Z,0.00
2023-05-04T00:51:26.629Z,0.00
2023-05-04T00:52:26.594Z,0.00
2023-05-04T00:53:26.595Z,0.00
2023-05-04T00:54:26.570Z,0.00
2023-05-04T00:55:26.534Z,0.00
2023-05-04T00:56:26.526Z,0.00
2023-05-04T00:57:26.547Z,0.00
2023-05-04T00:58:26.491Z,0.00
2023-05-04T00:59:26.512Z,0.00
2023-05-04T01:00:26.496Z,0.00
2023-05-04T01:01:26.495Z,0.00
2023-05-04T01:02:26.523Z,0.00
2023-05-04T01:03:26.713Z,0.00
2023-05-04T01:04:27.456Z,0.00
2023-05-04T01:05:26.432Z,0.00
2023-05-04T01:06:26.428Z,0.00
2023-05-04T01:07:26.417Z,0.00
2023-05-04T01:08:26.414Z,0.00
2023-05-04T01:09:26.382Z,0.00
2023-05-04T01:10:26.380Z,0.00
2023-05-04T01:11:26.353Z,0.00
2023-05-04T01:12:26.375Z,0.00
2023-05-04T01:13:26.344Z,0.00
2023-05-04T01:14:26.358Z,0.00
2023-05-04T01:15:26.321Z,0.00
2023-05-04T01:16:26.317Z,0.00
2023-05-04T01:17:26.458Z,0.00
2023-05-04T01:18:26.290Z,0.00
2023-05-04T01:19:26.371Z,0.00
2023-05-04T01:20:26.284Z,0.00
2023-05-04T01:21:26.259Z,0.00
2023-05-04T01:22:26.271Z,0.00
2023-05-04T01:23:26.253Z,0.00
2023-05-04T01:24:26.230Z,0.00
2023-05-04T01:25:26.225Z,0.00
2023-05-04T01:26:26.190Z,0.00
2023-05-04T01:27:26.201Z,0.00
2023-05-04T01:28:26.158Z,0.00
2023-05-04T01:29:26.155Z,0.00
2023-05-04T01:30:26.188Z,0.00
2023-05-04T01:31:26.292Z,0.00
2023-05-04T01:32:26.354Z,0.00
2023-05-04T01:33:26.288Z,0.00
2023-05-04T01:34:26.152Z,0.00
2023-05-04T01:35:27.565Z,0.00
2023-05-04T01:36:26.111Z,0.00
2023-05-04T01:37:26.075Z,0.00
2023-05-04T01:38:26.445Z,0.00
2023-05-04T01:39:27.022Z,0.00
2023-05-04T01:40:26.151Z,0.00
2023-05-04T01:41:26.446Z,0.00
2023-05-04T01:42:27.574Z,0.00
2023-05-04T01:43:26.178Z,0.00
2023-05-04T01:44:26.946Z,0.00
2023-05-04T01:45:27.041Z,0.00
2023-05-04T01:46:25.983Z,0.00
2023-05-04T01:47:27.457Z,0.00
2023-05-04T01:48:27.890Z,0.00
2023-05-04T01:49:25.980Z,0.00
2023-05-04T01:50:25.948Z,0.00
2023-05-04T01:51:25.915Z,0.00
2023-05-04T01:52:25.891Z,0.00
2023-05-04T01:53:25.950Z,0.00
2023-05-04T01:54:25.893Z,0.00
2023-05-04T01:55:25.892Z,0.00
2023-05-04T01:56:25.910Z,0.00
2023-05-04T01:57:25.930Z,0.00
2023-05-04T01:58:26.803Z,0.00
2023-05-04T01:59:25.958Z,0.00
2023-05-04T02:00:27.276Z,0.00
2023-05-04T02:01:25.815Z,0.00
2023-05-04T02:02:25.864Z,0.00
2023-05-04T02:03:26.878Z,0.00
2023-05-04T02:04:25.789Z,0.00
2023-05-04T02:05:25.767Z,0.00
2023-05-04T02:06:25.849Z,0.00
2023-05-04T02:07:25.722Z,0.00
2023-05-04T02:08:25.747Z,0.00
2023-05-04T02:09:25.752Z,0.00
2023-05-04T02:10:25.701Z,0.00
2023-05-04T02:11:25.712Z,0.00
2023-05-04T02:12:25.695Z,0.00
2023-05-04T02:13:25.685Z,0.00
2023-05-04T02:14:25.690Z,0.00
2023-05-04T02:15:25.636Z,0.00
2023-05-04T02:16:25.714Z,0.00
2023-05-04T02:17:25.643Z,0.00
2023-05-04T02:18:27.075Z,0.00
2023-05-04T02:19:25.614Z,0.00
2023-05-04T02:20:25.618Z,0.00
2023-05-04T02:21:27.156Z,0.00
2023-05-04T02:22:25.584Z,0.00
2023-05-04T02:23:25.560Z,0.00
2023-05-04T02:24:25.544Z,0.00
2023-05-04T02:25:25.564Z,0.00
2023-05-04T02:26:27.065Z,0.00
2023-05-04T02:27:25.507Z,0.00
2023-05-04T02:28:25.532Z,0.00
2023-05-04T02:29:25.492Z,0.00
2023-05-04T02:30:25.501Z,0.00
2023-05-04T02:31:25.524Z,0.00
2023-05-04T02:32:25.467Z,0.00
2023-05-04T02:33:25.480Z,0.00
2023-05-04T02:34:25.544Z,0.00
2023-05-04T02:35:25.431Z,0.00
2023-05-04T02:36:25.446Z,0.00
2023-05-04T02:37:25.655Z,0.00
2023-05-04T02:38:25.392Z,0.00
2023-05-04T02:39:25.467Z,0.00
2023-05-04T02:40:25.383Z,0.00
2023-05-04T02:41:25.648Z,0.00
2023-05-04T02:42:25.366Z,0.00
2023-05-04T02:43:25.640Z,0.00
2023-05-04T02:44:25.377Z,0.00
2023-05-04T02:45:25.382Z,0.00
2023-05-04T02:46:25.305Z,0.00
2023-05-04T02:47:25.318Z,0.00
2023-05-04T02:48:26.098Z,0.00
2023-05-04T02:49:25.290Z,0.00
2023-05-04T02:50:26.719Z,0.00
2023-05-04T02:51:25.707Z,0.00
2023-05-04T02:52:25.257Z,0.00
2023-05-04T02:53:25.248Z,0.00
2023-05-04T02:54:25.285Z,0.00
2023-05-04T02:55:25.242Z,0.00
2023-05-04T02:56:25.229Z,0.00
2023-05-04T02:57:26.712Z,0.00
2023-05-04T02:58:25.216Z,0.00
2023-05-04T02:59:25.193Z,0.00
2023-05-04T03:00:25.157Z,0.00
2023-05-04T03:01:25.230Z,0.00
2023-05-04T03:02:25.172Z,0.00
2023-05-04T03:03:25.158Z,0.00
2023-05-04T03:04:25.231Z,0.00
2023-05-04T03:05:25.121Z,0.00
2023-05-04T03:06:25.124Z,0.00
2023-05-04T03:07:25.083Z,0.00
2023-05-04T03:08:25.062Z,0.00
2023-05-04T03:09:25.127Z,0.00
2023-05-04T03:10:25.052Z,0.00
2023-05-04T03:11:25.174Z,0.00
2023-05-04T03:12:25.106Z,0.00
2023-05-04T03:13:25.093Z,0.00
2023-05-04T03:14:25.013Z,0.00
2023-05-04T03:15:24.998Z,0.00
2023-05-04T03:16:25.040Z,0.00
2023-05-04T03:17:24.983Z,0.00
2023-05-04T03:18:25.011Z,0.00
2023-05-04T03:19:25.018Z,0.00
2023-05-04T03:20:24.949Z,0.00
2023-05-04T03:21:24.954Z,0.00
2023-05-04T03:22:24.977Z,0.00
2023-05-04T03:23:24.966Z,0.00
2023-05-04T03:24:25.049Z,0.00
2023-05-04T03:25:24.909Z,0.00
2023-05-04T03:26:24.882Z,0.00
2023-05-04T03:27:24.948Z,0.00
2023-05-04T03:28:24.898Z,0.00
2023-05-04T03:29:24.842Z,0.00
2023-05-04T03:30:24.823Z,0.00
2023-05-04T03:31:24.853Z,0.00
2023-05-04T03:32:24.833Z,0.00
2023-05-04T03:33:24.835Z,0.00
2023-05-04T03:34:24.828Z,0.00
2023-05-04T03:35:25.329Z,4.00
2023-05-04T03:36:24.774Z,4.00
2023-05-04T03:37:24.735Z,4.00
2023-05-04T03:38:26.250Z,0.00
2023-05-04T03:39:24.778Z,4.00
2023-05-04T03:40:24.720Z,4.00
2023-05-04T03:41:24.711Z,4.00
2023-05-04T03:42:24.745Z,4.00
2023-05-04T03:43:24.677Z,4.00
2023-05-04T03:44:24.669Z,8.00
2023-05-04T03:45:24.645Z,8.00
2023-05-04T03:46:24.753Z,8.00
2023-05-04T03:47:24.674Z,12.00
2023-05-04T03:48:24.619Z,8.00
2023-05-04T03:49:24.609Z,12.00
2023-05-04T03:50:26.072Z,16.00
2023-05-04T03:51:24.616Z,16.00
2023-05-04T03:52:24.584Z,16.00
2023-05-04T03:53:24.597Z,20.00
2023-05-04T03:54:24.571Z,24.00
2023-05-04T03:55:24.549Z,28.00
2023-05-04T03:56:24.530Z,28.00
2023-05-04T03:57:24.801Z,32.00
2023-05-04T03:58:24.552Z,32.00
2023-05-04T03:59:25.510Z,32.00
2023-05-04T04:00:24.513Z,40.00
2023-05-04T04:01:24.520Z,40.00
2023-05-04T04:02:24.582Z,40.00
2023-05-04T04:03:24.649Z,48.00
2023-05-04T04:04:24.535Z,48.00
2023-05-04T04:05:24.510Z,52.00
2023-05-04T04:06:24.434Z,56.00
2023-05-04T04:07:24.508Z,60.00
2023-05-04T04:08:24.452Z,64.00
2023-05-04T04:09:24.426Z,68.00
2023-05-04T04:10:24.506Z,68.00
2023-05-04T04:11:24.368Z,76.00
2023-05-04T04:12:24.425Z,80.00
2023-05-04T04:13:24.359Z,84.00
2023-05-04T04:14:25.291Z,88.00
2023-05-04T04:15:24.340Z,96.00
2023-05-04T04:16:24.453Z,96.00
2023-05-04T04:17:24.446Z,104.00
2023-05-04T04:18:24.315Z,108.00
2023-05-04T04:19:24.271Z,116.00
2023-05-04T04:20:24.275Z,116.00
2023-05-04T04:21:24.249Z,124.00
2023-05-04T04:22:25.248Z,128.00
2023-05-04T04:23:24.245Z,140.00
2023-05-04T04:24:26.212Z,144.00
2023-05-04T04:25:24.240Z,152.00
2023-05-04T04:26:24.250Z,156.00
2023-05-04T04:27:24.405Z,164.00
2023-05-04T04:28:24.183Z,164.00
2023-05-04T04:29:24.150Z,172.00
2023-05-04T04:30:24.188Z,176.00
2023-05-04T04:31:24.184Z,184.00
2023-05-04T04:32:24.171Z,188.00
2023-05-04T04:33:24.136Z,196.00
2023-05-04T04:34:24.130Z,200.00
2023-05-04T04:35:24.390Z,208.00
2023-05-04T04:36:24.123Z,212.00
2023-05-04T04:37:24.079Z,220.00
2023-05-04T04:38:24.402Z,228.00
2023-05-04T04:39:24.062Z,240.00
2023-05-04T04:40:24.044Z,248.00
2023-05-04T04:41:24.023Z,260.00
2023-05-04T04:42:24.071Z,268.00
2023-05-04T04:43:24.124Z,280.00
2023-05-04T04:44:24.182Z,292.00
2023-05-04T04:45:24.000Z,304.00
2023-05-04T04:46:24.264Z,320.00
2023-05-04T04:47:24.064Z,332.00
2023-05-04T04:48:24.004Z,348.00
2023-05-04T04:49:23.944Z,360.00
2023-05-04T04:50:23.935Z,376.00
2023-05-04T04:51:24.141Z,396.00
2023-05-04T04:52:23.899Z,412.00
2023-05-04T04:53:24.877Z,432.00
2023-05-04T04:54:23.895Z,456.00
2023-05-04T04:55:23.875Z,480.00
2023-05-04T04:56:23.890Z,504.00
2023-05-04T04:57:23.857Z,528.00
2023-05-04T04:58:23.879Z,552.00
2023-05-04T04:59:23.826Z,580.00
2023-05-04T05:00:23.867Z,604.00
2023-05-04T05:01:24.631Z,628.00
2023-05-04T05:02:23.807Z,648.00
2023-05-04T05:03:23.835Z,676.00
2023-05-04T05:04:23.983Z,704.00
2023-05-04T05:05:23.777Z,736.00
2023-05-04T05:06:24.612Z,776.00
2023-05-04T05:07:23.741Z,820.00
2023-05-04T05:08:23.747Z,860.00
2023-05-04T05:09:23.726Z,896.00
2023-05-04T05:10:23.707Z,932.00
2023-05-04T05:11:23.731Z,968.00
2023-05-04T05:12:23.743Z,1000.00
2023-05-04T05:13:23.683Z,1024.00
2023-05-04T05:14:23.671Z,1044.00
2023-05-04T05:15:24.707Z,1064.00
2023-05-04T05:16:24.680Z,1088.00
2023-05-04T05:17:24.745Z,1112.00
2023-05-04T05:18:24.455Z,1140.00
2023-05-04T05:19:23.628Z,1168.00
2023-05-04T05:20:23.613Z,1184.00
2023-05-04T05:21:23.700Z,1212.00
2023-05-04T05:22:23.596Z,1220.00
2023-05-04T05:23:23.622Z,1232.00
2023-05-04T05:24:23.604Z,1236.00
2023-05-04T05:25:23.574Z,1232.00
2023-05-04T05:26:23.579Z,1232.00
2023-05-04T05:27:24.364Z,1244.00
2023-05-04T05:28:23.540Z,1252.00
2023-05-04T05:29:23.534Z,1268.00
2023-05-04T05:30:23.497Z,1276.00
2023-05-04T05:31:23.545Z,1276.00
2023-05-04T05:32:23.465Z,1272.00
2023-05-04T05:33:23.485Z,1256.00
2023-05-04T05:34:23.441Z,1248.00
2023-05-04T05:35:23.445Z,1240.00
2023-05-04T05:36:23.435Z,1224.00
2023-05-04T05:37:23.990Z,1216.00
2023-05-04T05:38:23.451Z,1212.00
2023-05-04T05:39:23.398Z,1216.00
2023-05-04T05:40:23.383Z,1232.00
2023-05-04T05:41:23.360Z,1236.00
2023-05-04T05:42:23.374Z,1236.00
2023-05-04T05:43:23.388Z,1228.00
2023-05-04T05:44:23.461Z,1216.00
2023-05-04T05:45:23.341Z,1204.00
2023-05-04T05:46:23.466Z,1184.00
2023-05-04T05:47:23.319Z,1144.00
2023-05-04T05:48:23.308Z,1124.00
2023-05-04T05:49:23.281Z,1092.00
2023-05-04T05:50:23.270Z,1080.00
2023-05-04T05:51:23.253Z,1096.00
2023-05-04T05:52:23.391Z,1096.00
2023-05-04T05:53:23.250Z,1096.00
2023-05-04T05:54:23.229Z,1112.00
2023-05-04T05:55:23.211Z,1136.00
2023-05-04T05:56:23.219Z,1152.00
2023-05-04T05:57:24.011Z,1172.00
2023-05-04T05:58:23.251Z,1184.00
2023-05-04T05:59:23.182Z,1224.00
2023-05-04T06:00:23.192Z,1256.00
2023-05-04T06:01:23.191Z,1288.00
2023-05-04T06:02:23.308Z,1312.00
2023-05-04T06:03:24.745Z,1336.00
2023-05-04T06:04:23.129Z,1332.00
2023-05-04T06:05:23.099Z,1320.00
2023-05-04T06:06:23.095Z,1328.00
2023-05-04T06:07:23.098Z,1380.00
2023-05-04T06:08:23.069Z,1416.00
2023-05-04T06:09:23.061Z,1456.00
2023-05-04T06:10:23.057Z,1488.00
2023-05-04T06:11:23.400Z,1472.00
2023-05-04T06:12:23.055Z,1432.00
2023-05-04T06:13:23.013Z,1408.00
2023-05-04T06:14:22.997Z,1400.00
2023-05-04T06:15:23.043Z,1384.00
2023-05-04T06:16:23.013Z,1348.00
2023-05-04T06:17:23.820Z,1360.00
2023-05-04T06:18:22.948Z,1344.00
2023-05-04T06:19:22.948Z,1316.00
2023-05-04T06:20:22.954Z,1300.00
2023-05-04T06:21:22.923Z,1280.00
2023-05-04T06:22:22.909Z,1256.00
2023-05-04T06:23:22.896Z,1264.00
2023-05-04T06:24:22.892Z,1300.00
2023-05-04T06:25:22.934Z,1348.00
2023-05-04T06:26:22.904Z,1404.00
2023-05-04T06:27:24.302Z,1444.00
2023-05-04T06:28:22.922Z,1448.00
2023-05-04T06:29:22.829Z,1428.00
2023-05-04T06:30:22.816Z,1388.00
2023-05-04T06:31:22.875Z,1352.00
2023-05-04T06:32:22.846Z,1332.00
2023-05-04T06:33:22.934Z,1348.00
2023-05-04T06:34:22.823Z,1372.00
2023-05-04T06:35:22.771Z,1388.00
2023-05-04T06:36:22.748Z,1420.00
2023-05-04T06:37:22.749Z,1464.00
2023-05-04T06:38:22.861Z,1508.00
2023-05-04T06:39:22.726Z,1544.00
2023-05-04T06:40:24.532Z,1580.00
2023-05-04T06:41:22.787Z,1628.00
2023-05-04T06:42:22.779Z,1664.00
2023-05-04T06:43:22.721Z,1716.00
2023-05-04T06:44:24.180Z,1788.00
2023-05-04T06:45:23.623Z,1820.00
2023-05-04T06:46:22.729Z,1852.00
2023-05-04T06:47:23.730Z,1852.00
2023-05-04T06:48:22.701Z,1824.00
2023-05-04T06:49:22.617Z,1788.00
2023-05-04T06:50:22.593Z,1712.00
2023-05-04T06:51:22.626Z,1696.00
2023-05-04T06:52:22.994Z,1700.00
2023-05-04T06:53:22.591Z,1724.00
2023-05-04T06:54:22.558Z,1776.00
2023-05-04T06:55:22.565Z,1812.00
2023-05-04T06:56:22.522Z,1836.00
2023-05-04T06:57:22.572Z,1828.00
2023-05-04T06:58:22.523Z,1804.00
2023-05-04T06:59:22.498Z,1776.00
2023-05-04T07:00:22.485Z,1832.00
2023-05-04T07:01:22.489Z,1872.00
2023-05-04T07:02:22.633Z,1908.00
2023-05-04T07:03:22.499Z,1936.00
2023-05-04T07:04:22.874Z,1948.00
2023-05-04T07:05:22.475Z,1940.00
2023-05-04T07:06:22.436Z,1948.00
2023-05-04T07:07:22.431Z,2004.00
2023-05-04T07:08:22.418Z,2052.00
2023-05-04T07:09:22.744Z,2076.00
2023-05-04T07:10:24.342Z,2088.00
2023-05-04T07:11:22.378Z,2076.00
2023-05-04T07:12:22.360Z,2068.00
2023-05-04T07:13:22.368Z,2032.00
2023-05-04T07:14:22.375Z,2004.00
2023-05-04T07:15:23.798Z,1988.00
2023-05-04T07:16:22.353Z,1972.00
2023-05-04T07:17:22.773Z,1948.00
2023-05-04T07:18:22.294Z,1932.00
2023-05-04T07:19:22.292Z,1924.00
2023-05-04T07:20:25.033Z,1916.00
2023-05-04T07:21:28.466Z,1912.00
2023-05-04T07:22:23.238Z,1928.00
2023-05-04T07:23:22.236Z,1948.00
2023-05-04T07:24:22.231Z,1956.00
2023-05-04T07:25:22.222Z,1980.00
2023-05-04T07:26:22.321Z,1988.00
2023-05-04T07:27:22.349Z,1980.00
2023-05-04T07:28:23.639Z,1948.00
2023-05-04T07:29:22.162Z,1900.00
2023-05-04T07:30:23.618Z,1876.00
2023-05-04T07:31:22.346Z,1844.00
2023-05-04T07:32:23.125Z,1804.00
2023-05-04T07:33:22.159Z,1796.00
2023-05-04T07:34:30.500Z,1788.00
2023-05-04T07:35:23.250Z,1776.00
2023-05-04T07:36:22.077Z,1772.00
2023-05-04T07:37:22.446Z,1792.00
2023-05-04T07:38:22.507Z,1836.00
2023-05-04T07:39:22.074Z,1892.00
2023-05-04T07:40:23.510Z,1980.00
2023-05-04T07:41:22.513Z,2096.00
2023-05-04T07:42:22.076Z,2184.00
2023-05-04T07:43:22.548Z,2276.00
2023-05-04T07:44:23.461Z,2336.00
2023-05-04T07:45:21.992Z,2408.00
2023-05-04T07:46:24.062Z,2464.00
2023-05-04T07:47:23.452Z,2516.00
2023-05-04T07:48:23.441Z,2600.00
2023-05-04T07:49:21.957Z,2648.00
2023-05-04T07:50:21.936Z,2644.00
2023-05-04T07:51:23.472Z,2648.00
2023-05-04T07:52:21.952Z,2648.00
2023-05-04T07:53:23.366Z,2668.00
2023-05-04T07:54:23.444Z,2672.00
2023-05-04T07:55:22.063Z,2704.00
2023-05-04T07:56:21.895Z,2700.00
2023-05-04T07:57:22.671Z,2676.00
2023-05-04T07:58:21.965Z,2652.00
2023-05-04T07:59:21.869Z,2656.00
2023-05-04T08:00:22.663Z,2656.00
2023-05-04T08:01:21.821Z,2664.00
2023-05-04T08:02:21.875Z,2652.00
2023-05-04T08:03:23.409Z,2636.00
2023-05-04T08:04:22.746Z,2628.00
2023-05-04T08:05:21.839Z,2664.00
2023-05-04T08:06:21.790Z,2684.00
2023-05-04T08:07:22.567Z,2676.00
2023-05-04T08:08:21.907Z,2652.00
2023-05-04T08:09:22.055Z,2640.00
2023-05-04T08:10:21.759Z,2676.00
2023-05-04T08:11:21.924Z,2704.00
2023-05-04T08:12:21.701Z,2728.00
2023-05-04T08:13:22.659Z,2780.00
2023-05-04T08:14:21.673Z,2828.00
2023-05-04T08:15:21.686Z,2872.00
2023-05-04T08:16:23.618Z,2872.00
2023-05-04T08:17:21.714Z,2884.00
2023-05-04T08:18:21.644Z,2900.00
2023-05-04T08:19:21.611Z,2840.00
2023-05-04T08:20:23.521Z,2768.00
2023-05-04T08:21:21.836Z,2748.00
2023-05-04T08:22:21.580Z,2756.00
2023-05-04T08:23:21.760Z,2804.00
2023-05-04T08:24:21.557Z,2760.00
2023-05-04T08:25:22.022Z,2524.00
2023-05-04T08:26:21.547Z,2520.00
2023-05-04T08:27:22.543Z,2568.00
2023-05-04T08:28:21.691Z,2444.00
2023-05-04T08:29:21.527Z,2496.00
2023-05-04T08:30:21.499Z,2492.00
2023-05-04T08:31:21.575Z,2588.00
2023-05-04T08:32:21.472Z,3028.00
2023-05-04T08:33:22.415Z,3004.00
2023-05-04T08:34:21.615Z,2912.00
2023-05-04T08:35:21.436Z,2812.00
2023-05-04T08:36:21.458Z,2712.00
2023-05-04T08:37:21.419Z,2612.00
2023-05-04T08:38:21.476Z,2544.00
2023-05-04T08:39:21.451Z,2440.00
2023-05-04T08:40:21.387Z,2384.00
2023-05-04T08:41:21.382Z,2320.00
2023-05-04T08:42:21.411Z,2304.00
2023-05-04T08:43:21.348Z,2308.00
2023-05-04T08:44:21.324Z,2348.00
2023-05-04T08:45:22.163Z,2432.00
2023-05-04T08:46:21.400Z,2524.00
2023-05-04T08:47:21.314Z,2532.00
2023-05-04T08:48:21.331Z,2580.00
2023-05-04T08:49:21.291Z,2608.00
2023-05-04T08:50:22.766Z,2644.00
2023-05-04T08:51:21.281Z,2704.00
2023-05-04T08:52:22.705Z,2800.00
2023-05-04T08:53:22.200Z,2936.00
2023-05-04T08:54:21.241Z,3080.00
2023-05-04T08:55:21.857Z,3176.00
2023-05-04T08:56:21.220Z,3276.00
2023-05-04T08:57:21.229Z,3300.00
2023-05-04T08:58:21.169Z,3284.00
2023-05-04T08:59:21.216Z,3224.00
2023-05-04T09:00:21.260Z,3008.00
2023-05-04T09:01:21.208Z,2796.00
2023-05-04T09:02:21.214Z,2640.00
2023-05-04T09:03:22.691Z,2552.00
2023-05-04T09:04:21.462Z,2476.00
2023-05-04T09:05:21.162Z,2356.00
2023-05-04T09:06:21.498Z,2324.00
2023-05-04T09:07:21.476Z,2288.00
2023-05-04T09:08:21.427Z,2192.00
2023-05-04T09:09:21.057Z,2196.00
2023-05-04T09:10:21.140Z,2244.00
2023-05-04T09:11:21.060Z,2300.00
2023-05-04T09:12:21.012Z,2308.00
2023-05-04T09:13:21.066Z,2268.00
2023-05-04T09:14:21.010Z,2276.00
2023-05-04T09:15:21.406Z,2180.00
2023-05-04T09:16:21.081Z,2188.00
2023-05-04T09:17:22.567Z,2188.00
2023-05-04T09:18:21.157Z,2192.00
2023-05-04T09:19:20.993Z,2164.00
2023-05-04T09:20:21.137Z,2196.00
2023-05-04T09:21:20.931Z,2212.00
2023-05-04T09:22:21.725Z,2228.00
2023-05-04T09:23:20.949Z,2248.00
2023-05-04T09:24:20.914Z,2244.00
2023-05-04T09:25:20.873Z,2176.00
2023-05-04T09:26:20.965Z,2088.00
2023-05-04T09:27:20.865Z,2076.00
2023-05-04T09:28:20.889Z,2080.00
2023-05-04T09:29:20.851Z,2092.00
2023-05-04T09:30:20.829Z,2104.00
2023-05-04T09:31:20.889Z,2136.00
2023-05-04T09:32:20.844Z,2164.00
2023-05-04T09:33:20.811Z,2212.00
2023-05-04T09:34:20.826Z,2324.00
2023-05-04T09:35:31.984Z,2448.00
2023-05-04T09:36:21.771Z,2572.00
2023-05-04T09:37:20.789Z,2612.00
2023-05-04T09:38:20.813Z,2580.00
2023-05-04T09:39:22.255Z,2492.00
2023-05-04T09:40:20.735Z,2404.00
2023-05-04T09:41:20.738Z,2368.00
2023-05-04T09:42:20.703Z,2368.00
2023-05-04T09:43:20.687Z,2392.00
2023-05-04T09:44:22.162Z,2416.00
2023-05-04T09:45:21.641Z,2400.00
2023-05-04T09:46:20.751Z,2432.00
2023-05-04T09:47:20.637Z,2516.00
2023-05-04T09:48:20.811Z,2524.00
2023-05-04T09:49:20.622Z,2528.00
2023-05-04T09:50:21.253Z,2588.00
2023-05-04T09:51:20.591Z,2684.00
2023-05-04T09:52:21.399Z,2760.00
2023-05-04T09:53:22.033Z,2820.00
2023-05-04T09:54:20.602Z,2836.00
2023-05-04T09:55:20.600Z,2768.00
2023-05-04T09:56:20.580Z,2640.00
2023-05-04T09:57:20.607Z,2676.00
2023-05-04T09:58:21.965Z,2720.00
2023-05-04T09:59:20.497Z,2660.00
2023-05-04T10:00:20.597Z,2584.00
2023-05-04T10:01:20.564Z,2564.00
2023-05-04T10:02:23.125Z,2544.00
2023-05-04T10:03:20.516Z,2556.00
2023-05-04T10:04:21.425Z,2620.00
2023-05-04T10:05:21.718Z,2644.00
2023-05-04T10:06:20.431Z,2676.00
2023-05-04T10:07:20.413Z,2684.00
2023-05-04T10:08:20.495Z,2712.00
2023-05-04T10:09:20.466Z,2740.00
2023-05-04T10:10:20.393Z,2748.00
2023-05-04T10:11:20.402Z,2760.00
2023-05-04T10:12:21.341Z,2764.00
2023-05-04T10:13:20.347Z,2724.00
2023-05-04T10:14:20.325Z,2756.00
2023-05-04T10:15:20.356Z,2788.00
2023-05-04T10:16:22.345Z,2884.00
2023-05-04T10:17:21.976Z,2916.00
2023-05-04T10:18:20.688Z,2916.00
2023-05-04T10:19:20.284Z,2892.00
2023-05-04T10:20:20.297Z,2852.00
2023-05-04T10:21:20.291Z,2876.00
2023-05-04T10:22:20.277Z,2840.00
2023-05-04T10:23:21.972Z,2828.00
2023-05-04T10:24:20.238Z,2804.00
2023-05-04T10:25:20.254Z,2900.00
2023-05-04T10:26:20.301Z,2940.00
2023-05-04T10:27:20.205Z,2928.00
2023-05-04T10:28:20.212Z,2896.00
2023-05-04T10:29:21.379Z,2840.00
2023-05-04T10:30:20.162Z,2704.00
2023-05-04T10:31:20.177Z,2648.00
2023-05-04T10:32:20.144Z,2552.00
2023-05-04T10:33:20.152Z,2512.00
2023-05-04T10:34:20.168Z,2544.00
2023-05-04T10:35:20.167Z,2612.00
2023-05-04T10:36:20.098Z,2700.00
2023-05-04T10:37:20.106Z,2736.00
2023-05-04T10:38:20.089Z,2836.00
2023-05-04T10:39:20.074Z,2896.00
2023-05-04T10:40:20.057Z,2968.00
2023-05-04T10:41:20.053Z,3032.00
2023-05-04T10:42:20.063Z,3140.00
2023-05-04T10:43:20.050Z,3260.00
2023-05-04T10:44:20.025Z,3324.00
2023-05-04T10:45:20.001Z,3300.00
2023-05-04T10:46:21.556Z,3356.00
2023-05-04T10:47:19.972Z,3344.00
2023-05-04T10:48:20.018Z,3284.00
2023-05-04T10:49:19.954Z,3332.00
2023-05-04T10:50:19.949Z,3388.00
2023-05-04T10:51:19.947Z,3460.00
2023-05-04T10:52:19.924Z,3584.00
2023-05-04T10:53:19.892Z,3724.00
2023-05-04T10:54:20.384Z,3832.00
2023-05-04T10:55:19.881Z,3908.00
2023-05-04T10:56:19.879Z,3856.00
2023-05-04T10:57:19.873Z,3800.00
2023-05-04T10:58:19.871Z,3700.00
2023-05-04T10:59:19.837Z,3564.00
2023-05-04T11:00:19.865Z,3464.00
2023-05-04T11:01:19.900Z,3420.00
2023-05-04T11:02:19.882Z,3432.00
2023-05-04T11:03:19.884Z,3520.00
2023-05-04T11:04:19.786Z,3596.00
2023-05-04T11:05:19.787Z,3680.00
2023-05-04T11:06:23.436Z,3656.00
2023-05-04T11:07:19.815Z,3620.00
2023-05-04T11:08:19.772Z,3576.00
2023-05-04T11:09:19.752Z,3580.00
2023-05-04T11:10:19.727Z,3696.00
2023-05-04T11:11:19.731Z,3712.00
2023-05-04T11:12:19.723Z,3640.00
2023-05-04T11:13:19.811Z,3648.00
2023-05-04T11:14:19.675Z,3648.00
2023-05-04T11:15:19.694Z,3644.00
2023-05-04T11:16:19.738Z,3664.00
2023-05-04T11:17:28.206Z,3704.00
2023-05-04T11:18:20.637Z,3684.00
2023-05-04T11:19:19.617Z,3664.00
2023-05-04T11:20:19.619Z,3600.00
2023-05-04T11:21:19.643Z,3544.00
2023-05-04T11:22:19.595Z,3532.00
2023-05-04T11:23:19.584Z,3544.00
2023-05-04T11:24:19.567Z,3556.00
2023-05-04T11:25:19.552Z,3552.00
2023-05-04T11:26:19.545Z,3564.00
2023-05-04T11:27:19.566Z,3656.00
2023-05-04T11:28:19.529Z,3736.00
2023-05-04T11:29:19.536Z,3852.00
2023-05-04T11:30:19.497Z,3952.00
2023-05-04T11:31:19.534Z,3996.00
2023-05-04T11:32:19.483Z,4020.00
2023-05-04T11:33:19.504Z,4104.00
2023-05-04T11:34:19.479Z,4100.00
2023-05-04T11:35:19.446Z,4112.00
2023-05-04T11:36:19.470Z,4196.00
2023-05-04T11:37:19.430Z,4332.00
2023-05-04T11:38:19.419Z,4396.00
2023-05-04T11:39:19.416Z,4432.00
2023-05-04T11:40:19.407Z,4460.00
2023-05-04T11:41:19.391Z,4524.00
2023-05-04T11:42:19.386Z,4472.00
2023-05-04T11:43:19.372Z,4600.00
2023-05-04T11:44:19.403Z,4476.00
2023-05-04T11:45:19.355Z,4468.00
2023-05-04T11:46:19.376Z,4468.00
2023-05-04T11:47:19.308Z,4532.00
2023-05-04T11:48:20.808Z,4696.00
2023-05-04T11:49:19.291Z,4784.00
2023-05-04T11:50:19.306Z,4872.00
2023-05-04T11:51:19.269Z,4936.00
2023-05-04T11:52:19.256Z,4940.00
2023-05-04T11:53:19.267Z,4972.00
2023-05-04T11:54:19.277Z,5000.00
2023-05-04T11:55:19.220Z,4964.00
2023-05-04T11:56:19.222Z,4956.00
2023-05-04T11:57:19.320Z,4948.00
2023-05-04T11:58:19.231Z,4944.00
2023-05-04T11:59:19.193Z,4932.00
2023-05-04T12:00:19.233Z,4892.00
2023-05-04T12:01:19.162Z,4812.00
2023-05-04T12:02:19.180Z,4696.00
2023-05-04T12:03:19.257Z,4632.00
2023-05-04T12:04:19.183Z,4612.00
2023-05-04T12:05:20.600Z,4588.00
2023-05-04T12:06:19.136Z,4596.00
2023-05-04T12:07:19.086Z,4528.00
2023-05-04T12:08:19.159Z,4436.00
2023-05-04T12:09:19.098Z,4476.00
2023-05-04T12:10:19.115Z,4516.00
2023-05-04T12:11:19.062Z,4432.00
2023-05-04T12:12:19.143Z,4384.00
2023-05-04T12:13:20.760Z,4336.00
2023-05-04T12:14:19.016Z,4316.00
2023-05-04T12:15:19.032Z,4264.00
2023-05-04T12:16:19.105Z,4236.00
2023-05-04T12:17:19.114Z,4216.00
2023-05-04T12:18:19.008Z,4268.00
2023-05-04T12:19:19.036Z,4360.00
2023-05-04T12:20:18.976Z,4384.00
2023-05-04T12:21:18.963Z,4436.00
2023-05-04T12:22:18.944Z,4532.00
2023-05-04T12:23:18.936Z,4552.00
2023-05-04T12:24:19.719Z,4588.00
2023-05-04T12:25:18.900Z,4628.00
2023-05-04T12:26:19.775Z,4676.00
2023-05-04T12:27:19.018Z,4724.00
2023-05-04T12:28:18.895Z,4840.00
2023-05-04T12:29:19.952Z,5016.00